sensor_id;sensor_type;location;lat;lon;timestamp;P1;durP1;ratioP1;P2;durP2;ratioP2
78382;SDS011;67668;52.294;4.692;2024-02-14T00:04:32;8.60;;;6.35;;
78382;SDS011;67668;52.294;4.692;2024-02-14T00:09:23;8.17;;;5.83;;
78382;SDS011;67668;52.294;4.692;2024-02-14T00:14:14;9.23;;;6.70;;
78382;SDS011;67668;52.294;4.692;2024-02-14T00:19:04;11.83;;;7.23;;
78382;SDS011;67668;52.294;4.692;2024-02-14T00:23:56;8.23;;;6.15;;
78382;SDS011;67668;52.294;4.692;2024-02-14T00:26:23;11.05;;;6.22;;
78382;SDS011;67668;52.294;4.692;2024-02-14T00:28:49;18.40;;;6.88;;
78382;SDS011;67668;52.294;4.692;2024-02-14T00:33:39;9.77;;;6.93;;
78382;SDS011;67668;52.294;4.692;2024-02-14T00:36:06;7.55;;;5.78;;
78382;SDS011;67668;52.294;4.692;2024-02-14T00:40:57;8.10;;;5.97;;
78382;SDS011;67668;52.294;4.692;2024-02-14T00:45:47;7.73;;;5.97;;
78382;SDS011;67668;52.294;4.692;2024-02-14T00:50:38;10.83;;;6.97;;
78382;SDS011;67668;52.294;4.692;2024-02-14T00:55:29;11.33;;;6.97;;
78382;SDS011;67668;52.294;4.692;2024-02-14T01:00:19;10.57;;;7.53;;
78382;SDS011;67668;52.294;4.692;2024-02-14T01:05:10;12.47;;;8.20;;
78382;SDS011;67668;52.294;4.692;2024-02-14T01:10:00;10.50;;;7.83;;
78382;SDS011;67668;52.294;4.692;2024-02-14T01:14:52;9.00;;;6.97;;
78382;SDS011;67668;52.294;4.692;2024-02-14T01:19:42;12.30;;;8.53;;
78382;SDS011;67668;52.294;4.692;2024-02-14T01:22:08;11.45;;;7.93;;
78382;SDS011;67668;52.294;4.692;2024-02-14T01:24:34;10.40;;;7.85;;
78382;SDS011;67668;52.294;4.692;2024-02-14T01:29:25;8.97;;;6.17;;
78382;SDS011;67668;52.294;4.692;2024-02-14T01:34:16;10.10;;;7.03;;
78382;SDS011;67668;52.294;4.692;2024-02-14T01:39:06;11.23;;;7.27;;
78382;SDS011;67668;52.294;4.692;2024-02-14T01:41:36;12.73;;;7.47;;
78382;SDS011;67668;52.294;4.692;2024-02-14T01:44:11;9.63;;;7.63;;
78382;SDS011;67668;52.294;4.692;2024-02-14T01:49:01;11.50;;;7.13;;
78382;SDS011;67668;52.294;4.692;2024-02-14T01:51:28;11.40;;;6.88;;
78382;SDS011;67668;52.294;4.692;2024-02-14T01:53:54;11.48;;;7.95;;
78382;SDS011;67668;52.294;4.692;2024-02-14T01:58:46;11.65;;;6.53;;
78382;SDS011;67668;52.294;4.692;2024-02-14T02:03:37;10.30;;;6.93;;
78382;SDS011;67668;52.294;4.692;2024-02-14T02:08:31;5.97;;;4.88;;
78382;SDS011;67668;52.294;4.692;2024-02-14T02:10:58;8.57;;;5.30;;
78382;SDS011;67668;52.294;4.692;2024-02-14T02:15:50;6.22;;;4.50;;
78382;SDS011;67668;52.294;4.692;2024-02-14T02:18:17;5.85;;;3.75;;
78382;SDS011;67668;52.294;4.692;2024-02-14T02:23:09;3.77;;;2.60;;
78382;SDS011;67668;52.294;4.692;2024-02-14T02:25:43;4.13;;;3.20;;
78382;SDS011;67668;52.294;4.692;2024-02-14T02:28:08;6.93;;;3.28;;
78382;SDS011;67668;52.294;4.692;2024-02-14T02:33:00;3.50;;;2.08;;
78382;SDS011;67668;52.294;4.692;2024-02-14T02:35:27;6.18;;;2.30;;
78382;SDS011;67668;52.294;4.692;2024-02-14T02:40:18;3.90;;;1.63;;
78382;SDS011;67668;52.294;4.692;2024-02-14T02:42:46;3.72;;;1.83;;
78382;SDS011;67668;52.294;4.692;2024-02-14T02:47:37;5.13;;;2.10;;
78382;SDS011;67668;52.294;4.692;2024-02-14T02:52:28;6.25;;;2.13;;
78382;SDS011;67668;52.294;4.692;2024-02-14T02:57:19;7.10;;;2.33;;
78382;SDS011;67668;52.294;4.692;2024-02-14T03:02:12;5.43;;;2.25;;
78382;SDS011;67668;52.294;4.692;2024-02-14T03:07:03;11.98;;;3.80;;
78382;SDS011;67668;52.294;4.692;2024-02-14T03:09:31;11.57;;;3.30;;
78382;SDS011;67668;52.294;4.692;2024-02-14T03:14:23;11.00;;;5.57;;
78382;SDS011;67668;52.294;4.692;2024-02-14T03:16:48;6.07;;;2.67;;
78382;SDS011;67668;52.294;4.692;2024-02-14T03:21:38;10.67;;;2.83;;
78382;SDS011;67668;52.294;4.692;2024-02-14T03:26:34;12.43;;;2.85;;
78382;SDS011;67668;52.294;4.692;2024-02-14T03:31:25;12.77;;;3.60;;
78382;SDS011;67668;52.294;4.692;2024-02-14T03:36:16;8.60;;;2.60;;
78382;SDS011;67668;52.294;4.692;2024-02-14T03:41:07;13.33;;;3.43;;
78382;SDS011;67668;52.294;4.692;2024-02-14T03:45:58;12.85;;;2.88;;
78382;SDS011;67668;52.294;4.692;2024-02-14T03:50:48;12.90;;;2.47;;
78382;SDS011;67668;52.294;4.692;2024-02-14T03:55:40;14.70;;;2.65;;
78382;SDS011;67668;52.294;4.692;2024-02-14T04:00:31;13.93;;;3.20;;
78382;SDS011;67668;52.294;4.692;2024-02-14T04:02:57;14.48;;;2.53;;
78382;SDS011;67668;52.294;4.692;2024-02-14T04:05:26;12.27;;;2.03;;
78382;SDS011;67668;52.294;4.692;2024-02-14T04:07:55;13.73;;;3.28;;
78382;SDS011;67668;52.294;4.692;2024-02-14T04:12:46;16.50;;;2.60;;
78382;SDS011;67668;52.294;4.692;2024-02-14T04:17:37;16.23;;;2.83;;
78382;SDS011;67668;52.294;4.692;2024-02-14T04:20:04;11.18;;;2.35;;
78382;SDS011;67668;52.294;4.692;2024-02-14T04:24:55;9.90;;;3.00;;
78382;SDS011;67668;52.294;4.692;2024-02-14T04:29:46;12.73;;;2.40;;
78382;SDS011;67668;52.294;4.692;2024-02-14T04:32:13;17.73;;;2.88;;
78382;SDS011;67668;52.294;4.692;2024-02-14T04:34:39;15.55;;;2.47;;
78382;SDS011;67668;52.294;4.692;2024-02-14T04:39:35;11.68;;;2.45;;
78382;SDS011;67668;52.294;4.692;2024-02-14T04:42:03;10.70;;;3.25;;
78382;SDS011;67668;52.294;4.692;2024-02-14T04:44:29;10.45;;;3.05;;
78382;SDS011;67668;52.294;4.692;2024-02-14T04:49:21;13.32;;;3.00;;
78382;SDS011;67668;52.294;4.692;2024-02-14T04:54:11;9.27;;;3.23;;
78382;SDS011;67668;52.294;4.692;2024-02-14T04:56:38;15.75;;;3.13;;
78382;SDS011;67668;52.294;4.692;2024-02-14T04:59:04;13.40;;;2.80;;
78382;SDS011;67668;52.294;4.692;2024-02-14T05:03:55;10.20;;;2.23;;
78382;SDS011;67668;52.294;4.692;2024-02-14T05:08:46;7.72;;;1.98;;
78382;SDS011;67668;52.294;4.692;2024-02-14T05:13:37;7.37;;;2.27;;
78382;SDS011;67668;52.294;4.692;2024-02-14T05:18:28;13.02;;;3.33;;
78382;SDS011;67668;52.294;4.692;2024-02-14T05:23:19;12.10;;;2.73;;
78382;SDS011;67668;52.294;4.692;2024-02-14T05:28:10;9.82;;;3.30;;
78382;SDS011;67668;52.294;4.692;2024-02-14T05:30:40;10.80;;;2.47;;
78382;SDS011;67668;52.294;4.692;2024-02-14T05:33:05;7.80;;;2.45;;
78382;SDS011;67668;52.294;4.692;2024-02-14T05:37:56;9.13;;;2.20;;
78382;SDS011;67668;52.294;4.692;2024-02-14T05:40:21;15.03;;;3.00;;
78382;SDS011;67668;52.294;4.692;2024-02-14T05:45:12;9.00;;;3.07;;
78382;SDS011;67668;52.294;4.692;2024-02-14T05:50:03;9.37;;;2.63;;
78382;SDS011;67668;52.294;4.692;2024-02-14T05:54:54;14.37;;;2.50;;
78382;SDS011;67668;52.294;4.692;2024-02-14T05:57:19;8.93;;;2.93;;
78382;SDS011;67668;52.294;4.692;2024-02-14T05:59:45;11.95;;;3.55;;
78382;SDS011;67668;52.294;4.692;2024-02-14T06:04:35;14.90;;;2.73;;
78382;SDS011;67668;52.294;4.692;2024-02-14T06:07:01;14.80;;;4.43;;
78382;SDS011;67668;52.294;4.692;2024-02-14T06:11:52;11.60;;;2.58;;
78382;SDS011;67668;52.294;4.692;2024-02-14T06:16:43;9.98;;;2.60;;
78382;SDS011;67668;52.294;4.692;2024-02-14T06:21:35;14.75;;;3.22;;
78382;SDS011;67668;52.294;4.692;2024-02-14T06:26:29;11.95;;;2.60;;
78382;SDS011;67668;52.294;4.692;2024-02-14T06:28:55;10.73;;;3.20;;
78382;SDS011;67668;52.294;4.692;2024-02-14T06:31:21;14.53;;;3.10;;
78382;SDS011;67668;52.294;4.692;2024-02-14T06:33:47;10.93;;;2.83;;
78382;SDS011;67668;52.294;4.692;2024-02-14T06:36:13;11.75;;;3.00;;
78382;SDS011;67668;52.294;4.692;2024-02-14T06:41:03;7.23;;;3.27;;
78382;SDS011;67668;52.294;4.692;2024-02-14T06:43:30;13.05;;;3.80;;
78382;SDS011;67668;52.294;4.692;2024-02-14T06:45:55;7.67;;;2.73;;
78382;SDS011;67668;52.294;4.692;2024-02-14T06:48:22;13.35;;;4.00;;
78382;SDS011;67668;52.294;4.692;2024-02-14T06:50:49;9.45;;;2.88;;
78382;SDS011;67668;52.294;4.692;2024-02-14T06:53:14;9.65;;;3.75;;
78382;SDS011;67668;52.294;4.692;2024-02-14T06:55:40;10.98;;;3.10;;
78382;SDS011;67668;52.294;4.692;2024-02-14T07:00:31;9.15;;;2.80;;
78382;SDS011;67668;52.294;4.692;2024-02-14T07:05:21;9.47;;;2.70;;
78382;SDS011;67668;52.294;4.692;2024-02-14T07:10:12;14.68;;;5.93;;
78382;SDS011;67668;52.294;4.692;2024-02-14T07:12:38;10.38;;;4.88;;
78382;SDS011;67668;52.294;4.692;2024-02-14T07:15:03;19.50;;;5.60;;
78382;SDS011;67668;52.294;4.692;2024-02-14T07:17:30;16.27;;;6.68;;
78382;SDS011;67668;52.294;4.692;2024-02-14T07:22:21;9.57;;;3.90;;
78382;SDS011;67668;52.294;4.692;2024-02-14T07:24:46;16.80;;;5.75;;
78382;SDS011;67668;52.294;4.692;2024-02-14T07:27:13;12.15;;;5.25;;
78382;SDS011;67668;52.294;4.692;2024-02-14T07:29:39;13.82;;;4.93;;
78382;SDS011;67668;52.294;4.692;2024-02-14T07:32:05;11.53;;;5.10;;
78382;SDS011;67668;52.294;4.692;2024-02-14T07:34:31;11.88;;;5.47;;
78382;SDS011;67668;52.294;4.692;2024-02-14T07:39:22;12.40;;;5.20;;
78382;SDS011;67668;52.294;4.692;2024-02-14T07:44:50;11.93;;;4.47;;
78382;SDS011;67668;52.294;4.692;2024-02-14T07:47:16;9.83;;;4.47;;
78382;SDS011;67668;52.294;4.692;2024-02-14T07:49:41;16.30;;;6.20;;
78382;SDS011;67668;52.294;4.692;2024-02-14T07:52:06;13.00;;;4.43;;
78382;SDS011;67668;52.294;4.692;2024-02-14T07:54:32;8.93;;;4.40;;
78382;SDS011;67668;52.294;4.692;2024-02-14T07:56:57;13.48;;;4.75;;
78382;SDS011;67668;52.294;4.692;2024-02-14T07:59:22;9.13;;;4.63;;
78382;SDS011;67668;52.294;4.692;2024-02-14T08:04:13;9.43;;;3.87;;
78382;SDS011;67668;52.294;4.692;2024-02-14T08:06:38;12.57;;;4.17;;
78382;SDS011;67668;52.294;4.692;2024-02-14T08:09:04;9.40;;;3.83;;
78382;SDS011;67668;52.294;4.692;2024-02-14T08:11:31;10.25;;;3.78;;
78382;SDS011;67668;52.294;4.692;2024-02-14T08:13:57;8.73;;;3.95;;
78382;SDS011;67668;52.294;4.692;2024-02-14T08:16:23;7.88;;;3.25;;
78382;SDS011;67668;52.294;4.692;2024-02-14T08:18:49;9.20;;;3.15;;
78382;SDS011;67668;52.294;4.692;2024-02-14T08:21:15;16.08;;;3.90;;
78382;SDS011;67668;52.294;4.692;2024-02-14T08:23:41;11.43;;;4.05;;
78382;SDS011;67668;52.294;4.692;2024-02-14T08:26:07;8.20;;;3.30;;
78382;SDS011;67668;52.294;4.692;2024-02-14T08:28:36;9.40;;;3.45;;
78382;SDS011;67668;52.294;4.692;2024-02-14T08:31:02;14.07;;;3.58;;
78382;SDS011;67668;52.294;4.692;2024-02-14T08:33:28;11.48;;;3.88;;
78382;SDS011;67668;52.294;4.692;2024-02-14T08:35:53;10.95;;;3.17;;
78382;SDS011;67668;52.294;4.692;2024-02-14T08:38:22;6.07;;;2.55;;
78382;SDS011;67668;52.294;4.692;2024-02-14T08:40:48;6.35;;;2.53;;
78382;SDS011;67668;52.294;4.692;2024-02-14T08:43:13;5.65;;;2.47;;
78382;SDS011;67668;52.294;4.692;2024-02-14T08:45:39;5.90;;;1.77;;
78382;SDS011;67668;52.294;4.692;2024-02-14T08:48:04;4.27;;;1.80;;
78382;SDS011;67668;52.294;4.692;2024-02-14T08:50:30;5.30;;;2.08;;
78382;SDS011;67668;52.294;4.692;2024-02-14T08:52:55;3.35;;;2.03;;
78382;SDS011;67668;52.294;4.692;2024-02-14T08:55:21;5.22;;;2.80;;
78382;SDS011;67668;52.294;4.692;2024-02-14T08:57:46;5.70;;;2.30;;
78382;SDS011;67668;52.294;4.692;2024-02-14T09:00:15;5.15;;;3.50;;
78382;SDS011;67668;52.294;4.692;2024-02-14T09:02:44;4.05;;;1.83;;
78382;SDS011;67668;52.294;4.692;2024-02-14T09:05:11;4.65;;;2.20;;
78382;SDS011;67668;52.294;4.692;2024-02-14T09:07:37;6.18;;;2.33;;
78382;SDS011;67668;52.294;4.692;2024-02-14T09:10:03;6.60;;;2.23;;
78382;SDS011;67668;52.294;4.692;2024-02-14T09:12:30;6.97;;;2.05;;
78382;SDS011;67668;52.294;4.692;2024-02-14T09:14:56;5.70;;;2.03;;
78382;SDS011;67668;52.294;4.692;2024-02-14T09:17:22;4.40;;;2.20;;
78382;SDS011;67668;52.294;4.692;2024-02-14T09:19:47;4.93;;;1.80;;
78382;SDS011;67668;52.294;4.692;2024-02-14T09:22:13;3.30;;;2.05;;
78382;SDS011;67668;52.294;4.692;2024-02-14T09:24:43;8.07;;;2.10;;
78382;SDS011;67668;52.294;4.692;2024-02-14T09:27:08;4.13;;;2.25;;
78382;SDS011;67668;52.294;4.692;2024-02-14T09:29:34;3.77;;;2.23;;
78382;SDS011;67668;52.294;4.692;2024-02-14T09:32:01;4.07;;;2.50;;
78382;SDS011;67668;52.294;4.692;2024-02-14T09:34:28;4.82;;;2.53;;
78382;SDS011;67668;52.294;4.692;2024-02-14T09:36:54;4.57;;;2.70;;
78382;SDS011;67668;52.294;4.692;2024-02-14T09:39:21;3.00;;;2.50;;
78382;SDS011;67668;52.294;4.692;2024-02-14T09:41:48;4.63;;;2.97;;
78382;SDS011;67668;52.294;4.692;2024-02-14T09:44:24;5.70;;;3.00;;
78382;SDS011;67668;52.294;4.692;2024-02-14T09:46:53;6.50;;;3.42;;
78382;SDS011;67668;52.294;4.692;2024-02-14T09:49:20;4.95;;;3.45;;
78382;SDS011;67668;52.294;4.692;2024-02-14T09:51:46;6.07;;;3.95;;
78382;SDS011;67668;52.294;4.692;2024-02-14T09:54:14;8.98;;;4.35;;
78382;SDS011;67668;52.294;4.692;2024-02-14T09:56:41;10.95;;;4.72;;
78382;SDS011;67668;52.294;4.692;2024-02-14T09:59:07;6.43;;;4.38;;
78382;SDS011;67668;52.294;4.692;2024-02-14T10:01:34;7.57;;;5.13;;
78382;SDS011;67668;52.294;4.692;2024-02-14T10:04:00;5.93;;;4.07;;
78382;SDS011;67668;52.294;4.692;2024-02-14T10:06:25;10.77;;;5.23;;
78382;SDS011;67668;52.294;4.692;2024-02-14T10:08:50;8.70;;;5.53;;
78382;SDS011;67668;52.294;4.692;2024-02-14T10:11:16;9.55;;;5.18;;
78382;SDS011;67668;52.294;4.692;2024-02-14T10:13:46;9.75;;;5.75;;
78382;SDS011;67668;52.294;4.692;2024-02-14T10:16:13;8.88;;;5.57;;
78382;SDS011;67668;52.294;4.692;2024-02-14T10:18:39;11.18;;;5.10;;
78382;SDS011;67668;52.294;4.692;2024-02-14T10:21:05;6.72;;;4.60;;
78382;SDS011;67668;52.294;4.692;2024-02-14T10:23:30;6.40;;;4.45;;
78382;SDS011;67668;52.294;4.692;2024-02-14T10:25:57;7.97;;;4.40;;
78382;SDS011;67668;52.294;4.692;2024-02-14T10:28:23;7.68;;;4.97;;
78382;SDS011;67668;52.294;4.692;2024-02-14T10:30:48;8.10;;;4.35;;
78382;SDS011;67668;52.294;4.692;2024-02-14T10:33:17;6.00;;;4.22;;
78382;SDS011;67668;52.294;4.692;2024-02-14T10:35:44;9.18;;;4.88;;
78382;SDS011;67668;52.294;4.692;2024-02-14T10:38:10;7.03;;;5.03;;
78382;SDS011;67668;52.294;4.692;2024-02-14T10:40:36;6.03;;;4.25;;
78382;SDS011;67668;52.294;4.692;2024-02-14T10:43:08;5.68;;;4.13;;
78382;SDS011;67668;52.294;4.692;2024-02-14T10:45:36;7.20;;;4.57;;
78382;SDS011;67668;52.294;4.692;2024-02-14T10:48:03;5.55;;;3.97;;
78382;SDS011;67668;52.294;4.692;2024-02-14T10:50:29;7.50;;;5.05;;
78382;SDS011;67668;52.294;4.692;2024-02-14T10:53:00;6.53;;;4.47;;
78382;SDS011;67668;52.294;4.692;2024-02-14T10:55:29;4.68;;;3.65;;
78382;SDS011;67668;52.294;4.692;2024-02-14T10:57:56;4.70;;;3.47;;
78382;SDS011;67668;52.294;4.692;2024-02-14T11:00:22;5.65;;;3.30;;
78382;SDS011;67668;52.294;4.692;2024-02-14T11:02:48;4.07;;;2.90;;
78382;SDS011;67668;52.294;4.692;2024-02-14T11:05:14;3.38;;;2.20;;
78382;SDS011;67668;52.294;4.692;2024-02-14T11:07:46;5.97;;;2.65;;
78382;SDS011;67668;52.294;4.692;2024-02-14T11:10:15;3.88;;;2.55;;
78382;SDS011;67668;52.294;4.692;2024-02-14T11:12:42;4.35;;;2.70;;
78382;SDS011;67668;52.294;4.692;2024-02-14T11:17:39;5.00;;;2.25;;
78382;SDS011;67668;52.294;4.692;2024-02-14T11:20:16;3.80;;;2.58;;
78382;SDS011;67668;52.294;4.692;2024-02-14T11:22:55;3.55;;;2.08;;
78382;SDS011;67668;52.294;4.692;2024-02-14T11:25:34;3.50;;;2.15;;
78382;SDS011;67668;52.294;4.692;2024-02-14T11:27:59;3.03;;;2.13;;
78382;SDS011;67668;52.294;4.692;2024-02-14T11:30:36;3.38;;;1.85;;
78382;SDS011;67668;52.294;4.692;2024-02-14T11:33:35;3.70;;;2.13;;
78382;SDS011;67668;52.294;4.692;2024-02-14T11:35:53;2.70;;;1.92;;
78382;SDS011;67668;52.294;4.692;2024-02-14T11:38:20;3.42;;;2.17;;
78382;SDS011;67668;52.294;4.692;2024-02-14T11:40:47;3.70;;;1.88;;
78382;SDS011;67668;52.294;4.692;2024-02-14T11:43:14;3.40;;;1.98;;
78382;SDS011;67668;52.294;4.692;2024-02-14T11:45:43;3.80;;;2.13;;
78382;SDS011;67668;52.294;4.692;2024-02-14T11:48:11;3.63;;;2.15;;
78382;SDS011;67668;52.294;4.692;2024-02-14T11:50:43;3.50;;;2.10;;
78382;SDS011;67668;52.294;4.692;2024-02-14T11:53:10;5.10;;;2.47;;
78382;SDS011;67668;52.294;4.692;2024-02-14T11:55:37;4.78;;;2.10;;
78382;SDS011;67668;52.294;4.692;2024-02-14T11:58:13;3.58;;;1.95;;
78382;SDS011;67668;52.294;4.692;2024-02-14T12:00:41;4.30;;;2.25;;
78382;SDS011;67668;52.294;4.692;2024-02-14T12:03:12;3.63;;;2.22;;
78382;SDS011;67668;52.294;4.692;2024-02-14T12:05:38;4.03;;;2.55;;
78382;SDS011;67668;52.294;4.692;2024-02-14T12:08:05;5.90;;;2.45;;
78382;SDS011;67668;52.294;4.692;2024-02-14T12:10:32;4.35;;;2.40;;
78382;SDS011;67668;52.294;4.692;2024-02-14T12:12:57;3.45;;;2.42;;
78382;SDS011;67668;52.294;4.692;2024-02-14T12:15:25;4.63;;;2.67;;
78382;SDS011;67668;52.294;4.692;2024-02-14T12:17:51;5.72;;;2.80;;
78382;SDS011;67668;52.294;4.692;2024-02-14T12:20:21;5.07;;;2.47;;
78382;SDS011;67668;52.294;4.692;2024-02-14T12:22:49;4.82;;;2.47;;
78382;SDS011;67668;52.294;4.692;2024-02-14T12:25:15;5.35;;;2.38;;
78382;SDS011;67668;52.294;4.692;2024-02-14T12:27:41;4.80;;;2.67;;
78382;SDS011;67668;52.294;4.692;2024-02-14T12:30:06;6.23;;;2.90;;
78382;SDS011;67668;52.294;4.692;2024-02-14T12:32:32;4.97;;;1.95;;
78382;SDS011;67668;52.294;4.692;2024-02-14T12:34:58;5.63;;;1.75;;
78382;SDS011;67668;52.294;4.692;2024-02-14T12:37:24;2.33;;;1.70;;
78382;SDS011;67668;52.294;4.692;2024-02-14T12:39:50;2.30;;;1.55;;
78382;SDS011;67668;52.294;4.692;2024-02-14T12:42:15;2.47;;;1.63;;
78382;SDS011;67668;52.294;4.692;2024-02-14T12:44:43;3.80;;;1.92;;
78382;SDS011;67668;52.294;4.692;2024-02-14T12:47:08;4.30;;;2.03;;
78382;SDS011;67668;52.294;4.692;2024-02-14T12:49:34;4.07;;;2.10;;
78382;SDS011;67668;52.294;4.692;2024-02-14T12:51:59;3.83;;;1.58;;
78382;SDS011;67668;52.294;4.692;2024-02-14T12:54:25;8.57;;;1.93;;
78382;SDS011;67668;52.294;4.692;2024-02-14T12:56:51;2.80;;;1.97;;
78382;SDS011;67668;52.294;4.692;2024-02-14T12:59:17;2.75;;;1.70;;
78382;SDS011;67668;52.294;4.692;2024-02-14T13:01:46;2.58;;;1.98;;
78382;SDS011;67668;52.294;4.692;2024-02-14T13:04:12;4.00;;;2.25;;
78382;SDS011;67668;52.294;4.692;2024-02-14T13:06:39;4.22;;;2.10;;
78382;SDS011;67668;52.294;4.692;2024-02-14T13:09:04;5.90;;;2.42;;
78382;SDS011;67668;52.294;4.692;2024-02-14T13:11:31;2.97;;;1.80;;
78382;SDS011;67668;52.294;4.692;2024-02-14T13:13:57;4.32;;;1.75;;
78382;SDS011;67668;52.294;4.692;2024-02-14T13:16:22;4.07;;;1.98;;
78382;SDS011;67668;52.294;4.692;2024-02-14T13:18:48;2.50;;;1.48;;
78382;SDS011;67668;52.294;4.692;2024-02-14T13:21:13;4.35;;;2.17;;
78382;SDS011;67668;52.294;4.692;2024-02-14T13:23:39;3.83;;;2.20;;
78382;SDS011;67668;52.294;4.692;2024-02-14T13:26:05;4.90;;;2.10;;
78382;SDS011;67668;52.294;4.692;2024-02-14T13:28:32;5.88;;;3.50;;
78382;SDS011;67668;52.294;4.692;2024-02-14T13:30:58;5.40;;;3.08;;
78382;SDS011;67668;52.294;4.692;2024-02-14T13:33:23;5.72;;;3.17;;
78382;SDS011;67668;52.294;4.692;2024-02-14T13:35:49;5.68;;;3.40;;
78382;SDS011;67668;52.294;4.692;2024-02-14T13:38:14;7.53;;;3.43;;
78382;SDS011;67668;52.294;4.692;2024-02-14T13:40:40;6.15;;;3.90;;
78382;SDS011;67668;52.294;4.692;2024-02-14T13:43:05;5.90;;;2.83;;
78382;SDS011;67668;52.294;4.692;2024-02-14T13:45:39;6.40;;;3.23;;
78382;SDS011;67668;52.294;4.692;2024-02-14T13:48:07;4.25;;;2.60;;
78382;SDS011;67668;52.294;4.692;2024-02-14T13:50:34;8.30;;;3.15;;
78382;SDS011;67668;52.294;4.692;2024-02-14T13:53:00;2.78;;;2.05;;
78382;SDS011;67668;52.294;4.692;2024-02-14T13:55:25;3.22;;;1.52;;
78382;SDS011;67668;52.294;4.692;2024-02-14T13:57:50;4.28;;;1.90;;
78382;SDS011;67668;52.294;4.692;2024-02-14T14:00:16;2.87;;;1.40;;
78382;SDS011;67668;52.294;4.692;2024-02-14T14:02:41;2.50;;;1.52;;
78382;SDS011;67668;52.294;4.692;2024-02-14T14:05:08;2.47;;;1.50;;
78382;SDS011;67668;52.294;4.692;2024-02-14T14:07:40;3.60;;;1.20;;
78382;SDS011;67668;52.294;4.692;2024-02-14T14:10:06;2.45;;;1.02;;
78382;SDS011;67668;52.294;4.692;2024-02-14T14:12:32;2.90;;;1.08;;
78382;SDS011;67668;52.294;4.692;2024-02-14T14:14:58;1.67;;;0.75;;
78382;SDS011;67668;52.294;4.692;2024-02-14T14:17:24;1.48;;;0.90;;
78382;SDS011;67668;52.294;4.692;2024-02-14T14:19:49;2.10;;;0.73;;
78382;SDS011;67668;52.294;4.692;2024-02-14T14:22:15;0.98;;;0.50;;
78382;SDS011;67668;52.294;4.692;2024-02-14T14:24:41;1.05;;;0.32;;
78382;SDS011;67668;52.294;4.692;2024-02-14T14:27:06;1.85;;;0.40;;
78382;SDS011;67668;52.294;4.692;2024-02-14T14:29:38;1.88;;;0.73;;
78382;SDS011;67668;52.294;4.692;2024-02-14T14:32:06;2.30;;;0.65;;
78382;SDS011;67668;52.294;4.692;2024-02-14T14:34:32;0.55;;;0.35;;
78382;SDS011;67668;52.294;4.692;2024-02-14T14:36:58;1.73;;;0.30;;
78382;SDS011;67668;52.294;4.692;2024-02-14T14:39:23;1.13;;;0.17;;
78382;SDS011;67668;52.294;4.692;2024-02-14T14:41:48;1.10;;;0.30;;
78382;SDS011;67668;52.294;4.692;2024-02-14T14:44:14;2.80;;;0.30;;
78382;SDS011;67668;52.294;4.692;2024-02-14T14:46:39;1.77;;;0.30;;
78382;SDS011;67668;52.294;4.692;2024-02-14T14:49:10;1.30;;;0.40;;
78382;SDS011;67668;52.294;4.692;2024-02-14T14:51:35;1.70;;;0.35;;
78382;SDS011;67668;52.294;4.692;2024-02-14T14:54:01;1.80;;;0.50;;
78382;SDS011;67668;52.294;4.692;2024-02-14T14:56:27;1.98;;;0.50;;
78382;SDS011;67668;52.294;4.692;2024-02-14T14:58:52;3.17;;;0.60;;
78382;SDS011;67668;52.294;4.692;2024-02-14T15:01:18;3.13;;;0.70;;
78382;SDS011;67668;52.294;4.692;2024-02-14T15:03:44;3.00;;;0.85;;
78382;SDS011;67668;52.294;4.692;2024-02-14T15:06:10;3.10;;;0.68;;
78382;SDS011;67668;52.294;4.692;2024-02-14T15:08:35;3.45;;;0.70;;
78382;SDS011;67668;52.294;4.692;2024-02-14T15:11:01;2.47;;;0.80;;
78382;SDS011;67668;52.294;4.692;2024-02-14T15:13:27;2.47;;;0.65;;
78382;SDS011;67668;52.294;4.692;2024-02-14T15:15:53;2.27;;;0.43;;
78382;SDS011;67668;52.294;4.692;2024-02-14T15:18:18;4.07;;;0.93;;
78382;SDS011;67668;52.294;4.692;2024-02-14T15:20:44;9.35;;;1.35;;
78382;SDS011;67668;52.294;4.692;2024-02-14T15:23:09;5.72;;;1.08;;
78382;SDS011;67668;52.294;4.692;2024-02-14T15:25:35;6.63;;;1.00;;
78382;SDS011;67668;52.294;4.692;2024-02-14T15:28:10;4.05;;;0.95;;
78382;SDS011;67668;52.294;4.692;2024-02-14T15:30:46;3.25;;;1.08;;
78382;SDS011;67668;52.294;4.692;2024-02-14T15:33:31;7.22;;;1.85;;
78382;SDS011;67668;52.294;4.692;2024-02-14T15:35:57;6.90;;;1.17;;
78382;SDS011;67668;52.294;4.692;2024-02-14T15:38:24;6.85;;;2.13;;
78382;SDS011;67668;52.294;4.692;2024-02-14T15:40:51;3.45;;;0.82;;
78382;SDS011;67668;52.294;4.692;2024-02-14T15:43:19;5.85;;;1.80;;
78382;SDS011;67668;52.294;4.692;2024-02-14T15:45:46;4.80;;;1.08;;
78382;SDS011;67668;52.294;4.692;2024-02-14T15:48:11;8.60;;;1.20;;
78382;SDS011;67668;52.294;4.692;2024-02-14T15:50:46;9.07;;;1.10;;
78382;SDS011;67668;52.294;4.692;2024-02-14T15:53:12;4.63;;;1.02;;
78382;SDS011;67668;52.294;4.692;2024-02-14T15:55:38;5.70;;;1.10;;
78382;SDS011;67668;52.294;4.692;2024-02-14T15:58:04;6.60;;;1.35;;
78382;SDS011;67668;52.294;4.692;2024-02-14T16:00:30;6.75;;;1.45;;
78382;SDS011;67668;52.294;4.692;2024-02-14T16:02:56;5.38;;;1.20;;
78382;SDS011;67668;52.294;4.692;2024-02-14T16:05:24;7.03;;;1.52;;
78382;SDS011;67668;52.294;4.692;2024-02-14T16:07:50;7.97;;;1.25;;
78382;SDS011;67668;52.294;4.692;2024-02-14T16:10:16;10.60;;;2.00;;
78382;SDS011;67668;52.294;4.692;2024-02-14T16:12:41;8.38;;;1.45;;
78382;SDS011;67668;52.294;4.692;2024-02-14T16:15:09;6.20;;;1.92;;
78382;SDS011;67668;52.294;4.692;2024-02-14T16:17:35;4.72;;;1.65;;
78382;SDS011;67668;52.294;4.692;2024-02-14T16:20:00;7.50;;;1.53;;
78382;SDS011;67668;52.294;4.692;2024-02-14T16:22:25;11.27;;;2.00;;
78382;SDS011;67668;52.294;4.692;2024-02-14T16:24:51;8.30;;;1.67;;
78382;SDS011;67668;52.294;4.692;2024-02-14T16:27:18;10.40;;;1.95;;
78382;SDS011;67668;52.294;4.692;2024-02-14T16:29:44;10.93;;;2.38;;
78382;SDS011;67668;52.294;4.692;2024-02-14T16:32:09;10.10;;;1.90;;
78382;SDS011;67668;52.294;4.692;2024-02-14T16:34:34;13.50;;;2.80;;
78382;SDS011;67668;52.294;4.692;2024-02-14T16:37:00;11.18;;;3.17;;
78382;SDS011;67668;52.294;4.692;2024-02-14T16:39:25;14.63;;;2.58;;
78382;SDS011;67668;52.294;4.692;2024-02-14T16:41:51;9.98;;;2.67;;
78382;SDS011;67668;52.294;4.692;2024-02-14T16:44:16;8.57;;;1.85;;
78382;SDS011;67668;52.294;4.692;2024-02-14T16:46:42;9.98;;;2.28;;
78382;SDS011;67668;52.294;4.692;2024-02-14T16:49:07;10.67;;;2.03;;
78382;SDS011;67668;52.294;4.692;2024-02-14T16:51:34;12.60;;;2.33;;
78382;SDS011;67668;52.294;4.692;2024-02-14T16:54:00;11.63;;;2.85;;
78382;SDS011;67668;52.294;4.692;2024-02-14T16:56:26;12.07;;;3.10;;
78382;SDS011;67668;52.294;4.692;2024-02-14T16:58:55;10.52;;;2.10;;
78382;SDS011;67668;52.294;4.692;2024-02-14T17:01:21;14.10;;;2.60;;
78382;SDS011;67668;52.294;4.692;2024-02-14T17:03:46;12.67;;;2.10;;
78382;SDS011;67668;52.294;4.692;2024-02-14T17:06:12;7.03;;;1.85;;
78382;SDS011;67668;52.294;4.692;2024-02-14T17:08:38;11.15;;;1.88;;
78382;SDS011;67668;52.294;4.692;2024-02-14T17:11:03;10.60;;;2.13;;
78382;SDS011;67668;52.294;4.692;2024-02-14T17:13:29;8.13;;;1.80;;
78382;SDS011;67668;52.294;4.692;2024-02-14T17:15:55;14.88;;;1.85;;
78382;SDS011;67668;52.294;4.692;2024-02-14T17:18:20;9.20;;;1.90;;
78382;SDS011;67668;52.294;4.692;2024-02-14T17:20:47;13.38;;;1.92;;
78382;SDS011;67668;52.294;4.692;2024-02-14T17:23:14;12.13;;;2.20;;
78382;SDS011;67668;52.294;4.692;2024-02-14T17:25:40;12.55;;;2.22;;
78382;SDS011;67668;52.294;4.692;2024-02-14T17:28:05;9.23;;;2.20;;
78382;SDS011;67668;52.294;4.692;2024-02-14T17:30:31;10.82;;;2.28;;
78382;SDS011;67668;52.294;4.692;2024-02-14T17:32:56;14.70;;;2.13;;
78382;SDS011;67668;52.294;4.692;2024-02-14T17:35:26;7.15;;;2.25;;